Richard Hamilton

Scout - Norwich City
23 Okt 2027
Samstag
Verarbeitung

Persönlichkeit

Anpassungsfähigkeit (19) Ehrgeiz (9) Kontroverse (17) Loyalität (5) Druck (10) Professionalität (10) Fairness (19) Temperament (17)

Profil

Trainerstil Demokratisch
Lizenz Kontinentale A
Entschlossenheit 10
Menschenführung 6
Motivation 13
Disziplin 10
Arbeitszufriedenheit
100%
Ermüdung
0%
Rolle Scout
Gehalt 53.8K p/W
Vertrag 14.03.2029

Leistung

Verhalten Gut
Trainingseffektivität
48%
Spielerentwicklung
20%
Verletzungsprävention
20%
Taktische Umsetzung
35%

Letzte Ereignisse

Nahm an einer Scouting-Besprechung teil jetzt
Nahm an einer Scouting-Besprechung teil 7T her
Nahm an einer Scouting-Besprechung teil 7T her
Nahm an einer Scouting-Besprechung teil 7T her
Nahm an einer Scouting-Besprechung teil 14T her
Nahm an einer Scouting-Besprechung teil 14T her
Nahm an einer Scouting-Besprechung teil 14T her
Nahm an einer Scouting-Besprechung teil 21T her

Aktuell beobachtet

133
Spieler Verein Status Fähigkeit Vertrauen Beobachtet Zuletzt beobachtet Letzte Stimme
Oumar Camara Vitoria Guimaraes Aktiv 114 / 119 40% 3 29.05.2027 -
André Miranda Porto Aktiv 97 / 117 40% 3 29.05.2027 -
Lander Astiazarán Real Sociedad Aktiv 109 / 105 40% 3 28.05.2027 -
Chemsdine Talbi Sunderland Aktiv 135 / 140 40% 9 27.05.2027 -
Nestory Irankunda Watford Aktiv 114 / 122 40% 5 27.05.2027 -
Kevin Schade Brentford Aktiv 152 / 136 40% 4 27.05.2027 -
Paulo Iago Sporting CP Aktiv 86 / 97 40% 2 27.05.2027 -
Zeidane Inoussa Swansea City Aktiv 117 / 121 40% 2 27.05.2027 -
Ben Gannon Doak Bournemouth Aktiv 142 / 140 40% 1 27.05.2027 -
Kevin Fulham Aktiv 151 / 150 40% 7 23.05.2027 -
Sidiki Chérif Coventry City Aktiv 135 / 127 40% 4 22.05.2027 -
Jay Robinson Southampton Aktiv 122 / 126 40% 2 22.05.2027 -
Saïd El Mala Köln Aktiv 131 / 133 40% 1 21.05.2027 -
Ichem Ferrah Pisa Aktiv 106 / 127 40% 1 21.05.2027 -
Max Bird Birmingham Aktiv 137 / 125 40% 2 20.05.2027 -
Shea Lacey Millwall Aktiv 118 / 136 40% 4 20.05.2027 -
Riley Owen Wycombe Wanderers Aktiv 94 / 122 40% 5 20.05.2027 -
Brennan Johnson Everton Aktiv 155 / 156 40% 2 20.05.2027 -
Emile Smith Rowe Fulham Aktiv 147 / 162 40% 4 20.05.2027 -
Monty Batlhabane Polokwane City Aktiv 95 / 80 40% 1 20.05.2027 -
Dávid Strelec Middlesbrough Aktiv 140 / 137 40% 3 19.05.2027 Beobachten
Koki Saito Queens Park Rangers Aktiv 134 / 129 40% 1 19.05.2027 -
Gladson Sulemana Liberty Professionals Aktiv 83 / 88 40% 3 17.05.2027 -
Gorka Gorosabel Real Sociedad Aktiv 107 / 103 40% 4 17.05.2027 -
Loum Tchaouna Coventry City Aktiv 137 / 135 40% 4 17.05.2027 Beobachten
Bradley Zwane SuperSport United Aktiv 92 / 98 40% 6 15.05.2027 -
Matt O'Riley Brighton Aktiv 142 / 134 40% 1 13.05.2027 -
Finn Azaz Southampton Aktiv 127 / 128 40% 1 12.05.2027 -
Tariq Lamptey Queens Park Rangers Aktiv 143 / 137 40% 6 11.05.2027 -
Yankuba Minteh Brighton Aktiv 160 / 148 40% 3 11.05.2027 -
Thiago Almada Fiorentina Aktiv 150 / 142 40% 4 11.05.2027 -
Mfundo Vilakazi Kaizer Chiefs Aktiv 120 / 131 40% 4 10.05.2027 -
Bazoumana Touré Newcastle United Aktiv 146 / 130 40% 3 10.05.2027 -
Jack Rudoni Coventry City Aktiv 140 / 139 40% 2 09.05.2027 -
Borna Knezović Casarano Aktiv 97 / 109 40% 1 09.05.2027 -
Dango Ouattara Brentford Aktiv 151 / 149 40% 2 07.05.2027 -
Jeon Jin-Woo Sheffield Wednesday Aktiv 131 / 116 40% 3 07.05.2027 -
Liam Delap Nottingham Forest Aktiv 150 / 157 40% 2 06.05.2027 -
Gonzalo Fulham Aktiv 147 / 159 40% 1 05.05.2027 -
Julio Enciso Ipswich Town Aktiv 146 / 141 40% 3 04.05.2027 -
Caleb Yirenkyi Coventry City Aktiv 140 / 144 40% 4 30.04.2027 -
Abubakar Garba Nasarawa United Aktiv 89 / 111 40% 1 27.04.2027 -
Christos Mouzakitis Hull City Aktiv 138 / 135 40% 5 26.04.2027 -
Mikkel Damsgaard Brentford Aktiv 143 / 134 40% 2 25.04.2027 -
Abraham Paintsil Hasaacas Aktiv 77 / 80 40% 3 23.04.2027 -
Luke Baartman Bidvest Wits Aktiv 113 / 98 40% 5 23.04.2027 -
Kamarni Ryan Salford City Aktiv 101 / 111 40% 1 23.04.2027 -
Lamine Cissé Peterborough United Aktiv 126 / 111 40% 2 22.04.2027 -
Jayden Luker Newport County Aktiv 90 / 85 40% 2 21.04.2027 -
Amine Moussaoui Angers SCO Aktiv 100 / 113 40% 2 19.04.2027 -
Othmane Maamma Watford Aktiv 125 / 124 40% 4 18.04.2027 -
Martim Cunha Porto Aktiv 105 / 98 40% 1 16.04.2027 -
Carlos Vicente Udinese Aktiv 140 / 137 40% 2 15.04.2027 -
Jack McGlynn Stoke City Aktiv 138 / 141 40% 2 15.04.2027 -
Ronwen Khune Black Aces Aktiv 96 / 119 40% 2 14.04.2027 -
Zack Nelson Walsall Aktiv 104 / 116 40% 3 11.04.2027 -
Asanele Bonani Chippa United Aktiv 89 / 111 40% 2 07.04.2027 -
Araphat Mohammed Medeama Aktiv 108 / 118 40% 1 02.04.2027 -
Benjamin Tsivanyo Aduana Stars Aktiv 78 / 94 40% 4 31.03.2027 -
Enzo Le Fée Sunderland Aktiv 145 / 141 40% 1 29.03.2027 -
Welington Southampton Aktiv 131 / 133 40% 1 29.03.2027 -
Relebohile Mofokeng Orlando Pirates Aktiv 112 / 128 40% 1 26.03.2027 -
Antoni Milambo Brentford Aktiv 131 / 144 40% 2 24.03.2027 -
Ishmael Addo Heart of Lions Aktiv 96 / 96 40% 2 21.03.2027 -
Ronald Swansea City Aktiv 130 / 126 40% 1 15.03.2027 -
Daniel Awuni Aduana Stars Aktiv 105 / 113 40% 4 12.03.2027 -
Edvin Austbø West Ham United Aktiv 133 / 125 40% 1 12.03.2027 -
Sam Curtis Swindon Town Aktiv 97 / 96 40% 2 09.03.2027 -
George Paaku Hearts of Oak Aktiv 74 / 102 40% 2 06.03.2027 -
Kirill Glebov CSKA Moscow Aktiv 133 / 149 40% 3 26.02.2027 -
Jack Hinshelwood Brighton Aktiv 138 / 145 40% 1 24.02.2027 -
Sindre Walle Egeli Nottingham Forest Aktiv 127 / 120 40% 2 23.02.2027 -
Malick Fofana Sunderland Aktiv 134 / 142 40% 4 19.02.2027 -
Nico O'Reilly Manchester City Aktiv 149 / 164 40% 1 19.02.2027 -
Óscar Mingueza Crystal Palace Aktiv 150 / 155 40% 4 31.12.2026 -
Juanlu Bournemouth Aktiv 155 / 158 40% 4 31.12.2026 -
Toti Wolverhampton Aktiv 132 / 137 40% 1 31.12.2026 -
Neco Williams Nottingham Forest Aktiv 151 / 128 40% 2 29.12.2026 -
El Hadji Malick Diouf Brentford Aktiv 143 / 132 40% 3 29.12.2026 -
Michael Kayode Brentford Aktiv 141 / 145 40% 1 29.12.2026 -
Tyrell Malacia Derby County Aktiv 142 / 119 40% 2 28.12.2026 -
Ryan Sessegnon Fulham Aktiv 141 / 157 40% 3 25.12.2026 -
Tim Iroegbunam Hull City Aktiv 135 / 128 40% 3 25.12.2026 -
James Garner Everton Aktiv 149 / 138 40% 1 25.12.2026 -
Hlompho Billiat Free State Stars Aktiv 111 / 107 40% 1 17.12.2026 -
Ethan Galbraith Swansea City Aktiv 129 / 123 40% 1 17.12.2026 -
Adrien Truffert Bournemouth Aktiv 145 / 141 40% 3 15.12.2026 -
Shea Charles Southampton Aktiv 129 / 119 40% 2 14.12.2026 -
Nicolas Madsen Queens Park Rangers Aktiv 135 / 124 40% 2 13.12.2026 -
Quinten Timber Crystal Palace Aktiv 146 / 138 40% 2 13.12.2026 -
Tyler Adams Bournemouth Aktiv 153 / 152 40% 2 09.12.2026 -
Alex Scott Bournemouth Aktiv 142 / 150 40% 2 09.12.2026 -
Florentino Luís Ipswich Town Aktiv 137 / 155 40% 2 09.12.2026 -
Bobby Thomas Coventry City Aktiv 141 / 123 40% 2 07.12.2026 -
Diogo Dalot Manchester United Aktiv 139 / 158 40% 1 23.11.2026 -
Tudor Mendel-Idowu Colchester United Aktiv 89 / 84 40% 1 23.11.2026 -
Thomas Atiemo Wa All Stars Aktiv 92 / 86 40% 1 23.11.2026 -
Mihailo Ivanović Millwall Aktiv 116 / 111 40% 1 20.11.2026 -
Simphiwe Selepe Orlando Pirates Aktiv 119 / 101 40% 1 20.11.2026 -
Noah Sadiki Sunderland Aktiv 145 / 139 40% 2 19.11.2026 -
Rico Lewis Manchester City Aktiv 155 / 165 40% 1 19.11.2026 -
Oliver Skipp Leicester City Aktiv 124 / 122 40% 1 19.11.2026 -
António Silva Bournemouth Aktiv 145 / 146 40% 1 13.11.2026 -
Alhassan Yusuf New England Revolution Aktiv 118 / 118 40% 1 12.11.2026 -
Elliot Anderson Manchester City Aktiv 149 / 143 40% 1 11.11.2026 -
Yehor Yarmoliuk Brentford Aktiv 143 / 147 40% 1 10.11.2026 -
Murillo Nottingham Forest Aktiv 148 / 140 40% 1 10.11.2026 -
Conrad Wallem Aalborg Aktiv 141 / 117 40% 2 07.11.2026 -
Aidan Morris Middlesbrough Aktiv 131 / 141 40% 1 07.11.2026 -
Anel Ahmedhodžić Burnley Aktiv 133 / 123 40% 1 03.11.2026 -
Habib Diarra Sunderland Aktiv 138 / 138 40% 1 02.11.2026 -
Bryan Ramírez FC Cincinnati Aktiv 132 / 115 40% 1 12.10.2026 -
Adam Wharton Crystal Palace Aktiv 145 / 151 40% 1 10.10.2026 -
Facundo Mura Inter Miami CF Aktiv 132 / 120 40% 1 09.10.2026 -
Harry Clarke Preston Aktiv 123 / 118 40% 1 09.10.2026 -
David Da Costa Portland Timbers Aktiv 123 / 133 40% 1 29.09.2026 -
Alexander Aravena Portland Timbers Aktiv 119 / 111 40% 1 28.09.2026 -
Xavi Simons Tottenham Aktiv 163 / 154 40% 1 28.09.2026 -
Bénie Traoré New York City Aktiv 129 / 113 40% 1 28.09.2026 -
Yeremy Pino Crystal Palace Aktiv 141 / 149 40% 1 27.09.2026 -
Hannes Wolf New York City Aktiv 127 / 123 40% 1 27.09.2026 -
Elias Achouri San Diego Football Club Aktiv 127 / 125 40% 3 25.09.2026 -
Talles Magno New York City Aktiv 127 / 136 40% 1 25.09.2026 -
Bongokuhle Hlongwane Minnesota United FC Aktiv 119 / 135 40% 1 21.09.2026 -
Paxten Aaronson Colorado Rapids Aktiv 131 / 140 40% 1 20.09.2026 -
Cheikh Sabaly Vancouver Whitecaps Aktiv 123 / 124 40% 1 20.09.2026 -
Martín Ojeda Orlando City Aktiv 128 / 136 40% 1 18.09.2026 -
Santiago Rodríguez Columbus Crew Aktiv 125 / 126 40% 1 16.09.2026 -
Riqui Puig LA Galaxy Aktiv 138 / 139 40% 1 16.09.2026 -
Lukas Engel Real Salt Lake Aktiv 118 / 134 40% 1 12.09.2026 -
Diego Luna Real Salt Lake Aktiv 120 / 125 40% 1 12.09.2026 -
Antony Portland Timbers Aktiv 132 / 143 40% 1 11.09.2026 -
Gabriel Pirani San Diego Football Club Aktiv 128 / 132 40% 1 07.09.2026 -